sensor_id;sensor_type;location;lat;lon;timestamp;P1;durP1;ratioP1;P2;durP2;ratioP2
51312;SDS011;37397;53.226;10.400;2024-03-25T00:01:32;11.02;;;2.40;;
51312;SDS011;37397;53.226;10.400;2024-03-25T00:03:58;14.50;;;3.65;;
51312;SDS011;37397;53.226;10.400;2024-03-25T00:06:24;10.02;;;2.53;;
51312;SDS011;37397;53.226;10.400;2024-03-25T00:08:50;12.57;;;3.13;;
51312;SDS011;37397;53.226;10.400;2024-03-25T00:11:16;11.60;;;2.72;;
51312;SDS011;37397;53.226;10.400;2024-03-25T00:13:41;11.82;;;2.50;;
51312;SDS011;37397;53.226;10.400;2024-03-25T00:16:07;9.40;;;2.58;;
51312;SDS011;37397;53.226;10.400;2024-03-25T00:18:32;14.25;;;2.97;;
51312;SDS011;37397;53.226;10.400;2024-03-25T00:20:58;10.25;;;3.00;;
51312;SDS011;37397;53.226;10.400;2024-03-25T00:23:24;11.18;;;2.63;;
51312;SDS011;37397;53.226;10.400;2024-03-25T00:25:50;8.90;;;2.88;;
51312;SDS011;37397;53.226;10.400;2024-03-25T00:28:16;8.93;;;2.63;;
51312;SDS011;37397;53.226;10.400;2024-03-25T00:30:41;9.88;;;2.58;;
51312;SDS011;37397;53.226;10.400;2024-03-25T00:33:07;12.70;;;3.40;;
51312;SDS011;37397;53.226;10.400;2024-03-25T00:35:33;9.93;;;2.47;;
51312;SDS011;37397;53.226;10.400;2024-03-25T00:37:59;9.15;;;2.80;;
51312;SDS011;37397;53.226;10.400;2024-03-25T00:40:25;6.30;;;2.42;;
51312;SDS011;37397;53.226;10.400;2024-03-25T00:42:51;12.07;;;2.80;;
51312;SDS011;37397;53.226;10.400;2024-03-25T00:45:17;14.82;;;2.65;;
51312;SDS011;37397;53.226;10.400;2024-03-25T00:47:43;11.63;;;3.33;;
51312;SDS011;37397;53.226;10.400;2024-03-25T00:50:08;6.63;;;2.28;;
51312;SDS011;37397;53.226;10.400;2024-03-25T00:52:34;10.27;;;2.35;;
51312;SDS011;37397;53.226;10.400;2024-03-25T00:55:01;8.00;;;2.47;;
51312;SDS011;37397;53.226;10.400;2024-03-25T00:57:26;6.68;;;2.30;;
51312;SDS011;37397;53.226;10.400;2024-03-25T00:59:52;13.25;;;3.10;;
51312;SDS011;37397;53.226;10.400;2024-03-25T01:02:18;10.10;;;2.42;;
51312;SDS011;37397;53.226;10.400;2024-03-25T01:04:43;9.73;;;2.40;;
51312;SDS011;37397;53.226;10.400;2024-03-25T01:07:09;7.97;;;2.40;;
51312;SDS011;37397;53.226;10.400;2024-03-25T01:09:35;13.30;;;3.28;;
51312;SDS011;37397;53.226;10.400;2024-03-25T01:12:00;8.65;;;2.67;;
51312;SDS011;37397;53.226;10.400;2024-03-25T01:14:26;10.65;;;3.00;;
51312;SDS011;37397;53.226;10.400;2024-03-25T01:16:52;8.85;;;2.78;;
51312;SDS011;37397;53.226;10.400;2024-03-25T01:19:17;11.02;;;2.45;;
51312;SDS011;37397;53.226;10.400;2024-03-25T01:21:43;14.43;;;2.92;;
51312;SDS011;37397;53.226;10.400;2024-03-25T01:24:09;6.95;;;2.08;;
51312;SDS011;37397;53.226;10.400;2024-03-25T01:26:35;10.50;;;2.45;;
51312;SDS011;37397;53.226;10.400;2024-03-25T01:29:02;10.95;;;2.58;;
51312;SDS011;37397;53.226;10.400;2024-03-25T01:31:27;10.23;;;2.30;;
51312;SDS011;37397;53.226;10.400;2024-03-25T01:33:53;6.18;;;2.60;;
51312;SDS011;37397;53.226;10.400;2024-03-25T01:36:19;7.10;;;2.45;;
51312;SDS011;37397;53.226;10.400;2024-03-25T01:38:45;8.02;;;2.10;;
51312;SDS011;37397;53.226;10.400;2024-03-25T01:41:10;12.45;;;2.72;;
51312;SDS011;37397;53.226;10.400;2024-03-25T01:43:37;6.40;;;2.20;;
51312;SDS011;37397;53.226;10.400;2024-03-25T01:46:04;6.18;;;2.28;;
51312;SDS011;37397;53.226;10.400;2024-03-25T01:48:30;6.10;;;2.40;;
51312;SDS011;37397;53.226;10.400;2024-03-25T01:50:56;8.25;;;2.45;;
51312;SDS011;37397;53.226;10.400;2024-03-25T01:53:23;8.70;;;2.30;;
51312;SDS011;37397;53.226;10.400;2024-03-25T01:55:49;8.95;;;2.58;;
51312;SDS011;37397;53.226;10.400;2024-03-25T01:58:19;7.35;;;2.33;;
51312;SDS011;37397;53.226;10.400;2024-03-25T02:00:45;9.00;;;2.33;;
51312;SDS011;37397;53.226;10.400;2024-03-25T02:03:11;9.05;;;2.78;;
51312;SDS011;37397;53.226;10.400;2024-03-25T02:05:36;8.77;;;2.35;;
51312;SDS011;37397;53.226;10.400;2024-03-25T02:08:03;9.23;;;2.40;;
51312;SDS011;37397;53.226;10.400;2024-03-25T02:10:29;8.05;;;2.58;;
51312;SDS011;37397;53.226;10.400;2024-03-25T02:12:55;7.30;;;1.90;;
51312;SDS011;37397;53.226;10.400;2024-03-25T02:15:20;6.75;;;2.25;;
51312;SDS011;37397;53.226;10.400;2024-03-25T02:17:46;10.70;;;2.67;;
51312;SDS011;37397;53.226;10.400;2024-03-25T02:20:12;13.10;;;2.67;;
51312;SDS011;37397;53.226;10.400;2024-03-25T02:22:41;8.38;;;2.65;;
51312;SDS011;37397;53.226;10.400;2024-03-25T02:25:08;9.63;;;2.22;;
51312;SDS011;37397;53.226;10.400;2024-03-25T02:27:35;8.82;;;2.45;;
51312;SDS011;37397;53.226;10.400;2024-03-25T02:30:02;8.20;;;2.22;;
51312;SDS011;37397;53.226;10.400;2024-03-25T02:32:35;9.93;;;2.57;;
51312;SDS011;37397;53.226;10.400;2024-03-25T02:35:01;7.38;;;2.60;;
51312;SDS011;37397;53.226;10.400;2024-03-25T02:37:29;7.72;;;2.35;;
51312;SDS011;37397;53.226;10.400;2024-03-25T02:39:55;6.05;;;2.25;;
51312;SDS011;37397;53.226;10.400;2024-03-25T02:42:24;8.07;;;2.50;;
51312;SDS011;37397;53.226;10.400;2024-03-25T02:44:52;7.13;;;2.42;;
51312;SDS011;37397;53.226;10.400;2024-03-25T02:47:19;5.70;;;2.13;;
51312;SDS011;37397;53.226;10.400;2024-03-25T02:49:45;8.57;;;2.35;;
51312;SDS011;37397;53.226;10.400;2024-03-25T02:52:11;4.95;;;1.92;;
51312;SDS011;37397;53.226;10.400;2024-03-25T02:54:36;10.63;;;2.60;;
51312;SDS011;37397;53.226;10.400;2024-03-25T02:57:02;9.45;;;2.33;;
51312;SDS011;37397;53.226;10.400;2024-03-25T02:59:28;7.70;;;2.60;;
51312;SDS011;37397;53.226;10.400;2024-03-25T03:01:53;6.75;;;2.15;;
51312;SDS011;37397;53.226;10.400;2024-03-25T03:04:19;8.82;;;2.40;;
51312;SDS011;37397;53.226;10.400;2024-03-25T03:06:44;5.00;;;2.10;;
51312;SDS011;37397;53.226;10.400;2024-03-25T03:09:10;6.72;;;2.22;;
51312;SDS011;37397;53.226;10.400;2024-03-25T03:11:36;8.32;;;2.33;;
51312;SDS011;37397;53.226;10.400;2024-03-25T03:14:01;5.78;;;2.35;;
51312;SDS011;37397;53.226;10.400;2024-03-25T03:16:28;8.55;;;2.60;;
51312;SDS011;37397;53.226;10.400;2024-03-25T03:18:54;7.13;;;2.17;;
51312;SDS011;37397;53.226;10.400;2024-03-25T03:21:20;6.88;;;2.00;;
51312;SDS011;37397;53.226;10.400;2024-03-25T03:23:45;9.48;;;2.65;;
51312;SDS011;37397;53.226;10.400;2024-03-25T03:26:11;10.38;;;2.53;;
51312;SDS011;37397;53.226;10.400;2024-03-25T03:28:38;8.35;;;2.00;;
51312;SDS011;37397;53.226;10.400;2024-03-25T03:31:03;9.52;;;2.20;;
51312;SDS011;37397;53.226;10.400;2024-03-25T03:33:29;10.30;;;2.25;;
51312;SDS011;37397;53.226;10.400;2024-03-25T03:35:54;6.68;;;1.95;;
51312;SDS011;37397;53.226;10.400;2024-03-25T03:38:21;5.97;;;2.40;;
51312;SDS011;37397;53.226;10.400;2024-03-25T03:41:00;11.85;;;2.30;;
51312;SDS011;37397;53.226;10.400;2024-03-25T03:43:27;5.82;;;1.90;;
51312;SDS011;37397;53.226;10.400;2024-03-25T03:45:54;6.93;;;2.13;;
51312;SDS011;37397;53.226;10.400;2024-03-25T03:48:20;6.82;;;2.13;;
51312;SDS011;37397;53.226;10.400;2024-03-25T03:50:45;6.88;;;2.10;;
51312;SDS011;37397;53.226;10.400;2024-03-25T03:53:11;6.43;;;2.40;;
51312;SDS011;37397;53.226;10.400;2024-03-25T03:55:37;7.68;;;2.13;;
51312;SDS011;37397;53.226;10.400;2024-03-25T03:58:03;7.55;;;2.35;;
51312;SDS011;37397;53.226;10.400;2024-03-25T04:00:33;7.80;;;2.47;;
51312;SDS011;37397;53.226;10.400;2024-03-25T04:03:00;8.02;;;2.67;;
51312;SDS011;37397;53.226;10.400;2024-03-25T04:05:29;10.35;;;2.72;;
51312;SDS011;37397;53.226;10.400;2024-03-25T04:07:55;8.00;;;2.40;;
51312;SDS011;37397;53.226;10.400;2024-03-25T04:10:22;5.95;;;2.30;;
51312;SDS011;37397;53.226;10.400;2024-03-25T04:12:48;9.35;;;2.30;;
51312;SDS011;37397;53.226;10.400;2024-03-25T04:15:14;4.45;;;2.08;;
51312;SDS011;37397;53.226;10.400;2024-03-25T04:17:46;6.03;;;1.92;;
51312;SDS011;37397;53.226;10.400;2024-03-25T04:20:14;5.35;;;2.03;;
51312;SDS011;37397;53.226;10.400;2024-03-25T04:22:41;7.70;;;2.10;;
51312;SDS011;37397;53.226;10.400;2024-03-25T04:25:10;4.60;;;2.00;;
51312;SDS011;37397;53.226;10.400;2024-03-25T04:27:45;8.45;;;2.63;;
51312;SDS011;37397;53.226;10.400;2024-03-25T04:30:11;7.95;;;2.33;;
51312;SDS011;37397;53.226;10.400;2024-03-25T04:32:37;6.38;;;2.20;;
51312;SDS011;37397;53.226;10.400;2024-03-25T04:35:04;6.82;;;2.13;;
51312;SDS011;37397;53.226;10.400;2024-03-25T04:37:31;6.80;;;2.10;;
51312;SDS011;37397;53.226;10.400;2024-03-25T04:39:58;5.35;;;2.05;;
51312;SDS011;37397;53.226;10.400;2024-03-25T04:42:24;5.70;;;2.05;;
51312;SDS011;37397;53.226;10.400;2024-03-25T04:44:49;9.00;;;2.00;;
51312;SDS011;37397;53.226;10.400;2024-03-25T04:47:16;6.78;;;2.38;;
51312;SDS011;37397;53.226;10.400;2024-03-25T04:49:42;3.10;;;1.60;;
51312;SDS011;37397;53.226;10.400;2024-03-25T04:52:08;7.07;;;2.10;;
51312;SDS011;37397;53.226;10.400;2024-03-25T04:54:34;6.38;;;2.30;;
51312;SDS011;37397;53.226;10.400;2024-03-25T04:57:00;6.10;;;1.90;;
51312;SDS011;37397;53.226;10.400;2024-03-25T04:59:27;3.90;;;1.80;;
51312;SDS011;37397;53.226;10.400;2024-03-25T05:01:53;11.80;;;1.90;;
51312;SDS011;37397;53.226;10.400;2024-03-25T05:04:19;4.70;;;1.80;;
51312;SDS011;37397;53.226;10.400;2024-03-25T05:06:45;6.85;;;2.20;;
51312;SDS011;37397;53.226;10.400;2024-03-25T05:09:11;5.43;;;2.28;;
51312;SDS011;37397;53.226;10.400;2024-03-25T05:11:36;7.55;;;2.38;;
51312;SDS011;37397;53.226;10.400;2024-03-25T05:14:02;7.20;;;2.40;;
51312;SDS011;37397;53.226;10.400;2024-03-25T05:16:28;7.60;;;2.67;;
51312;SDS011;37397;53.226;10.400;2024-03-25T05:18:53;5.47;;;2.35;;
51312;SDS011;37397;53.226;10.400;2024-03-25T05:21:19;5.28;;;2.47;;
51312;SDS011;37397;53.226;10.400;2024-03-25T05:23:45;7.13;;;2.88;;
51312;SDS011;37397;53.226;10.400;2024-03-25T05:26:11;6.82;;;2.60;;
51312;SDS011;37397;53.226;10.400;2024-03-25T05:28:36;5.22;;;2.30;;
51312;SDS011;37397;53.226;10.400;2024-03-25T05:31:08;5.97;;;2.42;;
51312;SDS011;37397;53.226;10.400;2024-03-25T05:33:34;6.93;;;2.40;;
51312;SDS011;37397;53.226;10.400;2024-03-25T05:36:00;7.53;;;2.80;;
51312;SDS011;37397;53.226;10.400;2024-03-25T05:38:28;8.82;;;3.05;;
51312;SDS011;37397;53.226;10.400;2024-03-25T05:40:54;7.35;;;2.53;;
51312;SDS011;37397;53.226;10.400;2024-03-25T05:43:20;7.72;;;2.90;;
51312;SDS011;37397;53.226;10.400;2024-03-25T05:45:52;10.60;;;2.83;;
51312;SDS011;37397;53.226;10.400;2024-03-25T05:48:19;9.35;;;3.20;;
51312;SDS011;37397;53.226;10.400;2024-03-25T05:50:45;10.25;;;2.90;;
51312;SDS011;37397;53.226;10.400;2024-03-25T05:53:11;7.88;;;3.10;;
51312;SDS011;37397;53.226;10.400;2024-03-25T05:55:37;8.32;;;3.20;;
51312;SDS011;37397;53.226;10.400;2024-03-25T05:58:02;10.18;;;3.25;;
51312;SDS011;37397;53.226;10.400;2024-03-25T06:00:29;8.05;;;2.92;;
51312;SDS011;37397;53.226;10.400;2024-03-25T06:02:56;8.15;;;2.95;;
51312;SDS011;37397;53.226;10.400;2024-03-25T06:05:22;7.85;;;2.70;;
51312;SDS011;37397;53.226;10.400;2024-03-25T06:07:48;8.40;;;3.03;;
51312;SDS011;37397;53.226;10.400;2024-03-25T06:10:13;7.95;;;2.88;;
51312;SDS011;37397;53.226;10.400;2024-03-25T06:12:39;7.60;;;2.72;;
51312;SDS011;37397;53.226;10.400;2024-03-25T06:15:05;5.90;;;2.78;;
51312;SDS011;37397;53.226;10.400;2024-03-25T06:17:32;6.60;;;2.90;;
51312;SDS011;37397;53.226;10.400;2024-03-25T06:19:58;13.55;;;2.83;;
51312;SDS011;37397;53.226;10.400;2024-03-25T06:22:23;6.22;;;2.50;;
51312;SDS011;37397;53.226;10.400;2024-03-25T06:24:49;10.00;;;3.08;;
51312;SDS011;37397;53.226;10.400;2024-03-25T06:27:16;7.70;;;3.30;;
51312;SDS011;37397;53.226;10.400;2024-03-25T06:29:42;10.65;;;2.75;;
51312;SDS011;37397;53.226;10.400;2024-03-25T06:32:09;6.78;;;2.85;;
51312;SDS011;37397;53.226;10.400;2024-03-25T06:34:55;7.60;;;3.33;;
51312;SDS011;37397;53.226;10.400;2024-03-25T06:37:25;8.32;;;3.13;;
51312;SDS011;37397;53.226;10.400;2024-03-25T06:39:50;8.93;;;3.55;;
51312;SDS011;37397;53.226;10.400;2024-03-25T06:42:16;9.43;;;3.55;;
51312;SDS011;37397;53.226;10.400;2024-03-25T06:44:42;9.32;;;3.45;;
51312;SDS011;37397;53.226;10.400;2024-03-25T06:47:08;8.90;;;3.53;;
51312;SDS011;37397;53.226;10.400;2024-03-25T06:49:34;10.07;;;3.45;;
51312;SDS011;37397;53.226;10.400;2024-03-25T06:52:00;8.63;;;3.80;;
51312;SDS011;37397;53.226;10.400;2024-03-25T06:54:26;11.05;;;4.38;;
51312;SDS011;37397;53.226;10.400;2024-03-25T06:56:51;11.05;;;4.55;;
51312;SDS011;37397;53.226;10.400;2024-03-25T06:59:17;10.93;;;4.38;;
51312;SDS011;37397;53.226;10.400;2024-03-25T07:01:43;11.20;;;4.28;;
51312;SDS011;37397;53.226;10.400;2024-03-25T07:04:08;9.05;;;3.75;;
51312;SDS011;37397;53.226;10.400;2024-03-25T07:06:34;9.73;;;3.70;;
51312;SDS011;37397;53.226;10.400;2024-03-25T07:08:59;8.32;;;3.67;;
51312;SDS011;37397;53.226;10.400;2024-03-25T07:11:25;13.60;;;3.42;;
51312;SDS011;37397;53.226;10.400;2024-03-25T07:13:51;12.05;;;3.20;;
51312;SDS011;37397;53.226;10.400;2024-03-25T07:16:17;8.70;;;3.35;;
51312;SDS011;37397;53.226;10.400;2024-03-25T07:18:43;9.25;;;3.65;;
51312;SDS011;37397;53.226;10.400;2024-03-25T07:21:09;7.05;;;2.53;;
51312;SDS011;37397;53.226;10.400;2024-03-25T07:23:35;6.63;;;3.00;;
51312;SDS011;37397;53.226;10.400;2024-03-25T07:26:00;10.40;;;2.63;;
51312;SDS011;37397;53.226;10.400;2024-03-25T07:28:26;12.23;;;3.50;;
51312;SDS011;37397;53.226;10.400;2024-03-25T07:30:52;7.30;;;2.78;;
51312;SDS011;37397;53.226;10.400;2024-03-25T07:33:17;7.05;;;3.08;;
51312;SDS011;37397;53.226;10.400;2024-03-25T07:35:44;7.70;;;2.63;;
51312;SDS011;37397;53.226;10.400;2024-03-25T07:38:10;10.82;;;3.00;;
51312;SDS011;37397;53.226;10.400;2024-03-25T07:40:36;9.18;;;2.90;;
51312;SDS011;37397;53.226;10.400;2024-03-25T07:43:02;7.85;;;2.80;;
51312;SDS011;37397;53.226;10.400;2024-03-25T07:45:27;8.60;;;3.00;;
51312;SDS011;37397;53.226;10.400;2024-03-25T07:47:53;7.68;;;2.55;;
51312;SDS011;37397;53.226;10.400;2024-03-25T07:50:20;10.27;;;3.20;;
51312;SDS011;37397;53.226;10.400;2024-03-25T07:52:46;11.57;;;3.00;;
51312;SDS011;37397;53.226;10.400;2024-03-25T07:55:12;9.60;;;2.95;;
51312;SDS011;37397;53.226;10.400;2024-03-25T07:57:38;7.97;;;3.03;;
51312;SDS011;37397;53.226;10.400;2024-03-25T08:00:04;11.38;;;3.08;;
51312;SDS011;37397;53.226;10.400;2024-03-25T08:02:40;9.52;;;2.97;;
51312;SDS011;37397;53.226;10.400;2024-03-25T08:05:05;11.98;;;3.10;;
51312;SDS011;37397;53.226;10.400;2024-03-25T08:07:31;14.93;;;3.33;;
51312;SDS011;37397;53.226;10.400;2024-03-25T08:09:57;4.90;;;2.42;;
51312;SDS011;37397;53.226;10.400;2024-03-25T08:12:23;8.05;;;2.70;;
51312;SDS011;37397;53.226;10.400;2024-03-25T08:14:48;7.82;;;2.80;;
51312;SDS011;37397;53.226;10.400;2024-03-25T08:17:14;8.45;;;2.83;;
51312;SDS011;37397;53.226;10.400;2024-03-25T08:19:39;6.10;;;2.53;;
51312;SDS011;37397;53.226;10.400;2024-03-25T08:22:05;8.77;;;3.00;;
51312;SDS011;37397;53.226;10.400;2024-03-25T08:24:30;7.30;;;2.92;;
51312;SDS011;37397;53.226;10.400;2024-03-25T08:26:56;9.05;;;3.20;;
51312;SDS011;37397;53.226;10.400;2024-03-25T08:29:22;10.85;;;2.80;;
51312;SDS011;37397;53.226;10.400;2024-03-25T08:31:47;12.23;;;2.95;;
51312;SDS011;37397;53.226;10.400;2024-03-25T08:34:13;7.05;;;2.60;;
51312;SDS011;37397;53.226;10.400;2024-03-25T08:36:38;12.00;;;2.80;;
51312;SDS011;37397;53.226;10.400;2024-03-25T08:39:05;9.07;;;3.10;;
51312;SDS011;37397;53.226;10.400;2024-03-25T08:41:31;8.77;;;3.10;;
51312;SDS011;37397;53.226;10.400;2024-03-25T08:43:58;10.98;;;2.83;;
51312;SDS011;37397;53.226;10.400;2024-03-25T08:46:23;9.35;;;2.88;;
51312;SDS011;37397;53.226;10.400;2024-03-25T08:48:49;9.52;;;2.85;;
51312;SDS011;37397;53.226;10.400;2024-03-25T08:51:16;13.98;;;3.55;;
51312;SDS011;37397;53.226;10.400;2024-03-25T08:53:41;10.05;;;2.70;;
51312;SDS011;37397;53.226;10.400;2024-03-25T08:56:07;8.30;;;2.60;;
51312;SDS011;37397;53.226;10.400;2024-03-25T08:58:33;9.93;;;3.30;;
51312;SDS011;37397;53.226;10.400;2024-03-25T09:00:58;11.95;;;3.65;;
51312;SDS011;37397;53.226;10.400;2024-03-25T09:03:24;12.40;;;3.20;;
51312;SDS011;37397;53.226;10.400;2024-03-25T09:05:53;9.55;;;2.70;;
51312;SDS011;37397;53.226;10.400;2024-03-25T09:08:19;11.73;;;3.05;;
51312;SDS011;37397;53.226;10.400;2024-03-25T09:10:44;5.55;;;2.20;;
51312;SDS011;37397;53.226;10.400;2024-03-25T09:13:30;9.77;;;2.88;;
51312;SDS011;37397;53.226;10.400;2024-03-25T09:15:56;11.45;;;2.97;;
51312;SDS011;37397;53.226;10.400;2024-03-25T09:18:22;8.27;;;2.72;;
51312;SDS011;37397;53.226;10.400;2024-03-25T09:20:47;12.32;;;2.97;;
51312;SDS011;37397;53.226;10.400;2024-03-25T09:23:13;11.18;;;3.13;;
51312;SDS011;37397;53.226;10.400;2024-03-25T09:25:39;9.35;;;3.08;;
51312;SDS011;37397;53.226;10.400;2024-03-25T09:28:05;13.30;;;2.85;;
51312;SDS011;37397;53.226;10.400;2024-03-25T09:30:31;13.80;;;3.30;;
51312;SDS011;37397;53.226;10.400;2024-03-25T09:32:57;12.90;;;3.15;;
51312;SDS011;37397;53.226;10.400;2024-03-25T09:35:23;9.50;;;2.78;;
51312;SDS011;37397;53.226;10.400;2024-03-25T09:37:49;15.20;;;3.00;;
51312;SDS011;37397;53.226;10.400;2024-03-25T09:40:14;16.40;;;3.25;;
51312;SDS011;37397;53.226;10.400;2024-03-25T09:42:42;12.90;;;3.45;;
51312;SDS011;37397;53.226;10.400;2024-03-25T09:45:13;14.65;;;3.22;;
51312;SDS011;37397;53.226;10.400;2024-03-25T09:47:43;10.05;;;2.95;;
51312;SDS011;37397;53.226;10.400;2024-03-25T09:50:11;12.50;;;2.92;;
51312;SDS011;37397;53.226;10.400;2024-03-25T09:52:38;10.40;;;3.13;;
51312;SDS011;37397;53.226;10.400;2024-03-25T09:55:04;9.95;;;3.03;;
51312;SDS011;37397;53.226;10.400;2024-03-25T09:57:31;12.60;;;3.25;;
51312;SDS011;37397;53.226;10.400;2024-03-25T09:59:57;12.80;;;3.22;;
51312;SDS011;37397;53.226;10.400;2024-03-25T10:02:23;11.20;;;2.83;;
51312;SDS011;37397;53.226;10.400;2024-03-25T10:04:52;8.90;;;2.60;;
51312;SDS011;37397;53.226;10.400;2024-03-25T10:07:21;9.52;;;2.70;;
51312;SDS011;37397;53.226;10.400;2024-03-25T10:09:48;11.18;;;2.63;;
51312;SDS011;37397;53.226;10.400;2024-03-25T10:12:17;12.98;;;2.50;;
51312;SDS011;37397;53.226;10.400;2024-03-25T10:14:43;9.13;;;2.55;;
51312;SDS011;37397;53.226;10.400;2024-03-25T10:17:09;11.85;;;2.83;;
51312;SDS011;37397;53.226;10.400;2024-03-25T10:19:35;10.32;;;2.50;;
51312;SDS011;37397;53.226;10.400;2024-03-25T10:22:01;8.95;;;2.45;;
51312;SDS011;37397;53.226;10.400;2024-03-25T10:24:41;7.65;;;2.28;;
51312;SDS011;37397;53.226;10.400;2024-03-25T10:27:26;9.77;;;2.38;;
51312;SDS011;37397;53.226;10.400;2024-03-25T10:29:52;11.30;;;2.72;;
51312;SDS011;37397;53.226;10.400;2024-03-25T10:32:20;9.10;;;2.30;;
51312;SDS011;37397;53.226;10.400;2024-03-25T10:34:47;10.07;;;2.53;;
51312;SDS011;37397;53.226;10.400;2024-03-25T10:37:13;10.93;;;2.22;;
51312;SDS011;37397;53.226;10.400;2024-03-25T10:39:47;7.68;;;2.13;;
51312;SDS011;37397;53.226;10.400;2024-03-25T10:42:18;8.90;;;2.45;;
51312;SDS011;37397;53.226;10.400;2024-03-25T10:44:45;9.43;;;2.17;;
51312;SDS011;37397;53.226;10.400;2024-03-25T10:47:16;9.05;;;2.28;;
51312;SDS011;37397;53.226;10.400;2024-03-25T10:49:54;9.07;;;2.40;;
51312;SDS011;37397;53.226;10.400;2024-03-25T10:52:26;10.50;;;2.25;;
51312;SDS011;37397;53.226;10.400;2024-03-25T10:54:54;9.98;;;2.40;;
51312;SDS011;37397;53.226;10.400;2024-03-25T10:57:20;8.77;;;2.72;;
51312;SDS011;37397;53.226;10.400;2024-03-25T10:59:46;9.38;;;2.58;;
51312;SDS011;37397;53.226;10.400;2024-03-25T11:02:11;10.65;;;2.40;;
51312;SDS011;37397;53.226;10.400;2024-03-25T11:04:38;11.63;;;3.28;;
51312;SDS011;37397;53.226;10.400;2024-03-25T11:07:09;15.20;;;2.58;;
51312;SDS011;37397;53.226;10.400;2024-03-25T11:09:39;10.80;;;2.70;;
51312;SDS011;37397;53.226;10.400;2024-03-25T11:12:06;11.00;;;2.83;;
51312;SDS011;37397;53.226;10.400;2024-03-25T11:14:32;8.82;;;2.38;;
51312;SDS011;37397;53.226;10.400;2024-03-25T11:16:59;7.95;;;2.28;;
51312;SDS011;37397;53.226;10.400;2024-03-25T11:19:26;5.07;;;1.98;;
51312;SDS011;37397;53.226;10.400;2024-03-25T11:21:52;8.98;;;2.17;;
51312;SDS011;37397;53.226;10.400;2024-03-25T11:24:28;7.65;;;1.90;;
51312;SDS011;37397;53.226;10.400;2024-03-25T11:26:55;8.57;;;2.03;;
51312;SDS011;37397;53.226;10.400;2024-03-25T11:29:21;10.20;;;2.10;;
51312;SDS011;37397;53.226;10.400;2024-03-25T11:31:48;6.45;;;2.03;;
51312;SDS011;37397;53.226;10.400;2024-03-25T11:34:18;9.13;;;2.25;;
51312;SDS011;37397;53.226;10.400;2024-03-25T11:36:44;8.38;;;2.38;;
51312;SDS011;37397;53.226;10.400;2024-03-25T11:39:09;6.53;;;1.90;;
51312;SDS011;37397;53.226;10.400;2024-03-25T11:41:38;7.13;;;1.80;;
51312;SDS011;37397;53.226;10.400;2024-03-25T11:44:05;6.35;;;2.00;;
51312;SDS011;37397;53.226;10.400;2024-03-25T11:46:33;7.80;;;2.38;;
51312;SDS011;37397;53.226;10.400;2024-03-25T11:49:03;8.20;;;2.13;;
51312;SDS011;37397;53.226;10.400;2024-03-25T11:51:31;10.77;;;2.83;;
51312;SDS011;37397;53.226;10.400;2024-03-25T11:53:58;10.35;;;2.45;;
51312;SDS011;37397;53.226;10.400;2024-03-25T11:56:25;9.27;;;2.40;;
51312;SDS011;37397;53.226;10.400;2024-03-25T11:58:51;12.90;;;2.63;;
51312;SDS011;37397;53.226;10.400;2024-03-25T12:01:17;13.05;;;2.60;;
51312;SDS011;37397;53.226;10.400;2024-03-25T12:03:43;14.57;;;3.05;;
51312;SDS011;37397;53.226;10.400;2024-03-25T12:06:09;9.00;;;2.88;;
51312;SDS011;37397;53.226;10.400;2024-03-25T12:08:34;8.43;;;2.50;;
51312;SDS011;37397;53.226;10.400;2024-03-25T12:11:10;8.70;;;2.65;;
51312;SDS011;37397;53.226;10.400;2024-03-25T12:13:44;9.23;;;2.30;;
51312;SDS011;37397;53.226;10.400;2024-03-25T12:16:12;8.95;;;2.60;;
51312;SDS011;37397;53.226;10.400;2024-03-25T12:18:39;9.18;;;2.67;;
51312;SDS011;37397;53.226;10.400;2024-03-25T12:21:07;8.88;;;2.33;;
51312;SDS011;37397;53.226;10.400;2024-03-25T12:23:33;10.10;;;2.78;;
51312;SDS011;37397;53.226;10.400;2024-03-25T12:26:03;16.00;;;2.75;;
51312;SDS011;37397;53.226;10.400;2024-03-25T12:28:33;8.70;;;2.95;;
51312;SDS011;37397;53.226;10.400;2024-03-25T12:31:02;17.25;;;3.25;;
51312;SDS011;37397;53.226;10.400;2024-03-25T12:33:28;8.63;;;2.97;;
51312;SDS011;37397;53.226;10.400;2024-03-25T12:35:53;8.98;;;2.53;;
51312;SDS011;37397;53.226;10.400;2024-03-25T12:38:27;13.38;;;2.88;;
51312;SDS011;37397;53.226;10.400;2024-03-25T12:41:00;8.63;;;2.75;;
51312;SDS011;37397;53.226;10.400;2024-03-25T12:43:31;6.93;;;2.50;;
51312;SDS011;37397;53.226;10.400;2024-03-25T12:45:58;7.53;;;2.30;;
51312;SDS011;37397;53.226;10.400;2024-03-25T12:48:24;12.77;;;2.75;;
51312;SDS011;37397;53.226;10.400;2024-03-25T12:50:51;8.10;;;2.55;;
51312;SDS011;37397;53.226;10.400;2024-03-25T12:53:18;9.50;;;2.38;;
51312;SDS011;37397;53.226;10.400;2024-03-25T12:55:45;7.75;;;2.40;;
51312;SDS011;37397;53.226;10.400;2024-03-25T12:58:11;8.95;;;2.00;;
51312;SDS011;37397;53.226;10.400;2024-03-25T13:00:37;9.07;;;2.47;;
51312;SDS011;37397;53.226;10.400;2024-03-25T13:03:04;7.03;;;2.53;;
51312;SDS011;37397;53.226;10.400;2024-03-25T13:05:31;9.15;;;2.17;;
51312;SDS011;37397;53.226;10.400;2024-03-25T13:07:57;8.57;;;2.17;;
51312;SDS011;37397;53.226;10.400;2024-03-25T13:10:23;12.18;;;2.50;;
51312;SDS011;37397;53.226;10.400;2024-03-25T13:12:49;7.70;;;2.53;;
51312;SDS011;37397;53.226;10.400;2024-03-25T13:15:14;11.43;;;2.58;;
51312;SDS011;37397;53.226;10.400;2024-03-25T13:17:40;14.32;;;2.78;;
51312;SDS011;37397;53.226;10.400;2024-03-25T13:20:06;10.75;;;1.95;;
51312;SDS011;37397;53.226;10.400;2024-03-25T13:22:32;15.27;;;2.58;;
51312;SDS011;37397;53.226;10.400;2024-03-25T13:24:59;9.05;;;2.55;;
51312;SDS011;37397;53.226;10.400;2024-03-25T13:27:25;9.82;;;2.25;;
51312;SDS011;37397;53.226;10.400;2024-03-25T13:29:51;8.07;;;2.63;;
51312;SDS011;37397;53.226;10.400;2024-03-25T13:32:21;11.23;;;2.78;;
51312;SDS011;37397;53.226;10.400;2024-03-25T13:34:47;7.93;;;2.50;;
51312;SDS011;37397;53.226;10.400;2024-03-25T13:37:13;9.95;;;2.40;;
51312;SDS011;37397;53.226;10.400;2024-03-25T13:39:38;11.85;;;2.85;;
51312;SDS011;37397;53.226;10.400;2024-03-25T13:42:04;8.35;;;2.20;;
51312;SDS011;37397;53.226;10.400;2024-03-25T13:44:30;10.35;;;2.75;;
51312;SDS011;37397;53.226;10.400;2024-03-25T13:46:56;8.75;;;2.60;;
51312;SDS011;37397;53.226;10.400;2024-03-25T13:49:22;8.85;;;2.65;;
51312;SDS011;37397;53.226;10.400;2024-03-25T13:51:58;11.18;;;2.95;;
51312;SDS011;37397;53.226;10.400;2024-03-25T13:54:24;9.93;;;2.40;;
51312;SDS011;37397;53.226;10.400;2024-03-25T13:56:51;9.07;;;2.35;;
51312;SDS011;37397;53.226;10.400;2024-03-25T13:59:17;7.82;;;2.70;;
51312;SDS011;37397;53.226;10.400;2024-03-25T14:01:42;9.05;;;2.53;;
51312;SDS011;37397;53.226;10.400;2024-03-25T14:04:08;12.70;;;2.47;;
51312;SDS011;37397;53.226;10.400;2024-03-25T14:06:33;11.95;;;3.08;;
51312;SDS011;37397;53.226;10.400;2024-03-25T14:09:02;9.15;;;2.45;;
51312;SDS011;37397;53.226;10.400;2024-03-25T14:11:31;10.20;;;2.40;;
51312;SDS011;37397;53.226;10.400;2024-03-25T14:13:57;6.75;;;2.45;;
51312;SDS011;37397;53.226;10.400;2024-03-25T14:16:22;10.38;;;2.47;;
51312;SDS011;37397;53.226;10.400;2024-03-25T14:18:48;9.32;;;2.47;;
51312;SDS011;37397;53.226;10.400;2024-03-25T14:21:14;10.25;;;2.50;;
51312;SDS011;37397;53.226;10.400;2024-03-25T14:23:40;9.85;;;2.90;;
51312;SDS011;37397;53.226;10.400;2024-03-25T14:26:12;14.27;;;2.88;;
51312;SDS011;37397;53.226;10.400;2024-03-25T14:28:41;7.72;;;2.45;;